ASH6111 KIAH-KSAV
Flight info
| Callsign | ASH6111 |
|---|---|
| Flight time | 1h 47m |
| Altitude | 35000 |
| Route | GUMBY3 GUSTI AWDAD SJI J2 CEW ALLMA JANIE SAV |
| Aircraft | E75L/M-SDE3GILORVW/S |
Departure
| Time | 2026-05-06 21:29 |
|---|---|
| Airport | George Bush Intercontinental Airport (KIAH) |
Arrival
| Time | 2026-05-06 23:16 |
|---|---|
| Airport | Savannah Hilton Head International Airport (KSAV) |
| Time | Latitude | Longitude | Altitude | Speed | Heading |
|---|---|---|---|---|---|
| 2026-05-06 21:02 | 29.98568 | -95.34738 | 105 ft | 0 kts | 44° |
| 2026-05-06 21:20 | 29.98551 | -95.34756 | 104 ft | 4 kts | 29° |
| 2026-05-06 21:20 | 29.98530 | -95.34764 | 104 ft | 4 kts | 23° |
| 2026-05-06 21:20 | 29.98515 | -95.34784 | 105 ft | 4 kts | 93° |
| 2026-05-06 21:20 | 29.98528 | -95.34804 | 102 ft | 4 kts | 169° |
| 2026-05-06 21:21 | 29.98552 | -95.34805 | 103 ft | 1 kts | 180° |
| 2026-05-06 21:21 | 29.98553 | -95.34805 | 103 ft | 0 kts | 180° |
| 2026-05-06 21:23 | 29.98544 | -95.34805 | 104 ft | 3 kts | 180° |
| 2026-05-06 21:23 | 29.98508 | -95.34805 | 105 ft | 7 kts | 180° |
| 2026-05-06 21:23 | 29.98444 | -95.34805 | 105 ft | 11 kts | 180° |
| 2026-05-06 21:23 | 29.98363 | -95.34806 | 105 ft | 11 kts | 191° |
| 2026-05-06 21:24 | 29.98325 | -95.34861 | 103 ft | 9 kts | 264° |
| 2026-05-06 21:24 | 29.98324 | -95.34933 | 105 ft | 10 kts | 270° |
| 2026-05-06 21:24 | 29.98324 | -95.35017 | 105 ft | 11 kts | 270° |
| 2026-05-06 21:24 | 29.98324 | -95.35117 | 105 ft | 14 kts | 270° |
| 2026-05-06 21:25 | 29.98377 | -95.35198 | 104 ft | 14 kts | 332° |
| 2026-05-06 21:25 | 29.98473 | -95.35258 | 105 ft | 17 kts | 332° |
| 2026-05-06 21:25 | 29.98587 | -95.35328 | 105 ft | 20 kts | 332° |
| 2026-05-06 21:25 | 29.98717 | -95.35407 | 105 ft | 22 kts | 332° |
| 2026-05-06 21:26 | 29.98804 | -95.35461 | 103 ft | 10 kts | 327° |
| 2026-05-06 21:26 | 29.98819 | -95.35489 | 105 ft | 5 kts | 284° |
| 2026-05-06 21:26 | 29.98812 | -95.35532 | 104 ft | 7 kts | 242° |
| 2026-05-06 21:26 | 29.98780 | -95.35601 | 104 ft | 12 kts | 241° |
| 2026-05-06 21:27 | 29.98764 | -95.35635 | 104 ft | 0 kts | 242° |
| 2026-05-06 21:27 | 29.98764 | -95.35636 | 104 ft | 1 kts | 242° |
| 2026-05-06 21:27 | 29.98746 | -95.35675 | 105 ft | 10 kts | 242° |
| 2026-05-06 21:28 | 29.98722 | -95.35725 | 105 ft | 3 kts | 227° |
| 2026-05-06 21:28 | 29.98682 | -95.35727 | 106 ft | 9 kts | 143° |
| 2026-05-06 21:28 | 29.98517 | -95.35622 | 105 ft | 58 kts | 152° |
| 2026-05-06 21:28 | 29.97952 | -95.35275 | 107 ft | 124 kts | 152° |
| 2026-05-06 21:29 | 29.97058 | -95.34731 | 335 ft | 159 kts | 153° |
| 2026-05-06 21:29 | 29.96069 | -95.34078 | 1014 ft | 166 kts | 154° |
| 2026-05-06 21:29 | 29.95095 | -95.33395 | 1860 ft | 166 kts | 151° |
| 2026-05-06 21:29 | 29.94165 | -95.32260 | 2181 ft | 219 kts | 129° |
| 2026-05-06 21:30 | 29.93299 | -95.30849 | 3422 ft | 219 kts | 130° |
| 2026-05-06 21:30 | 29.92282 | -95.29312 | 3887 ft | 264 kts | 130° |
| 2026-05-06 21:30 | 29.91176 | -95.27577 | 3953 ft | 275 kts | 129° |
| 2026-05-06 21:30 | 29.90045 | -95.25799 | 3950 ft | 274 kts | 130° |
| 2026-05-06 21:31 | 29.88915 | -95.24013 | 3955 ft | 275 kts | 129° |
| 2026-05-06 21:31 | 29.87819 | -95.22246 | 4143 ft | 272 kts | 129° |
| 2026-05-06 21:31 | 29.86700 | -95.20445 | 4647 ft | 276 kts | 129° |
| 2026-05-06 21:31 | 29.85563 | -95.18619 | 4991 ft | 282 kts | 129° |
| 2026-05-06 21:32 | 29.84417 | -95.16772 | 5074 ft | 284 kts | 127° |
| 2026-05-06 21:32 | 29.82948 | -95.12586 | 5217 ft | 278 kts | 107° |
| 2026-05-06 21:32 | 29.82520 | -95.10365 | 5840 ft | 288 kts | 103° |
| 2026-05-06 21:33 | 29.82199 | -95.08059 | 6522 ft | 295 kts | 97° |
| 2026-05-06 21:33 | 29.82066 | -95.05679 | 7260 ft | 301 kts | 95° |
| 2026-05-06 21:33 | 29.81958 | -95.03263 | 8105 ft | 305 kts | 94° |
| 2026-05-06 21:33 | 29.81870 | -95.00787 | 9018 ft | 313 kts | 94° |
| 2026-05-06 21:34 | 29.81824 | -94.98268 | 9872 ft | 317 kts | 91° |
| 2026-05-06 21:34 | 29.81944 | -94.95734 | 10470 ft | 327 kts | 89° |
| 2026-05-06 21:34 | 29.82110 | -94.93026 | 10694 ft | 347 kts | 88° |
| 2026-05-06 21:34 | 29.82292 | -94.90224 | 10873 ft | 352 kts | 88° |
| 2026-05-06 21:35 | 29.82476 | -94.87414 | 10968 ft | 352 kts | 88° |
| 2026-05-06 21:35 | 29.82658 | -94.84602 | 11016 ft | 352 kts | 89° |
| 2026-05-06 21:35 | 29.82837 | -94.81792 | 10997 ft | 352 kts | 89° |
| 2026-05-06 21:35 | 29.82937 | -94.79931 | 11055 ft | 350 kts | 89° |
| 2026-05-06 21:36 | 29.83131 | -94.77131 | 11645 ft | 354 kts | 88° |
| 2026-05-06 21:36 | 29.83333 | -94.74276 | 12284 ft | 360 kts | 89° |
| 2026-05-06 21:36 | 29.83536 | -94.71378 | 13000 ft | 363 kts | 89° |
| 2026-05-06 21:36 | 29.83741 | -94.68468 | 13789 ft | 366 kts | 90° |
| 2026-05-06 21:37 | 29.83943 | -94.65519 | 14436 ft | 373 kts | 90° |
| 2026-05-06 21:37 | 29.84152 | -94.62506 | 15063 ft | 382 kts | 89° |
| 2026-05-06 21:37 | 29.84366 | -94.59433 | 15779 ft | 387 kts | 89° |
| 2026-05-06 21:37 | 29.84581 | -94.56322 | 16506 ft | 391 kts | 89° |
| 2026-05-06 21:38 | 29.84797 | -94.53190 | 17243 ft | 393 kts | 89° |
| 2026-05-06 21:38 | 29.85012 | -94.50055 | 17990 ft | 394 kts | 89° |
| 2026-05-06 21:38 | 29.85227 | -94.46908 | 18679 ft | 394 kts | 89° |
| 2026-05-06 21:38 | 29.85438 | -94.43783 | 19251 ft | 398 kts | 89° |
| 2026-05-06 21:39 | 29.85656 | -94.40571 | 19802 ft | 403 kts | 89° |
| 2026-05-06 21:39 | 29.85875 | -94.37329 | 20367 ft | 408 kts | 89° |
| 2026-05-06 21:39 | 29.86087 | -94.34060 | 20941 ft | 411 kts | 89° |
| 2026-05-06 21:39 | 29.86150 | -94.30768 | 21527 ft | 412 kts | 96° |
| 2026-05-06 21:40 | 29.86080 | -94.27450 | 22127 ft | 414 kts | 96° |
| 2026-05-06 21:40 | 29.85986 | -94.24122 | 22748 ft | 417 kts | 96° |
| 2026-05-06 21:40 | 29.85882 | -94.20774 | 23371 ft | 419 kts | 96° |
| 2026-05-06 21:40 | 29.85778 | -94.17418 | 23903 ft | 420 kts | 96° |
| 2026-05-06 21:41 | 29.85675 | -94.14085 | 24425 ft | 421 kts | 96° |
| 2026-05-06 21:41 | 29.85568 | -94.10702 | 24963 ft | 422 kts | 96° |
| 2026-05-06 21:41 | 29.85499 | -94.07317 | 25509 ft | 423 kts | 94° |
| 2026-05-06 21:41 | 29.85534 | -94.03892 | 25669 ft | 437 kts | 90° |
| 2026-05-06 21:42 | 29.85838 | -94.00320 | 25685 ft | 455 kts | 86° |
| 2026-05-06 21:42 | 29.86207 | -93.96636 | 25724 ft | 470 kts | 85° |
| 2026-05-06 21:42 | 29.86609 | -93.92873 | 26059 ft | 475 kts | 85° |
| 2026-05-06 21:42 | 29.87014 | -93.89077 | 26438 ft | 478 kts | 85° |
| 2026-05-06 21:43 | 29.87421 | -93.85261 | 26813 ft | 482 kts | 85° |
| 2026-05-06 21:43 | 29.87831 | -93.81409 | 27200 ft | 485 kts | 85° |
| 2026-05-06 21:43 | 29.88234 | -93.77595 | 27559 ft | 489 kts | 85° |
| 2026-05-06 21:43 | 29.88646 | -93.73696 | 27907 ft | 492 kts | 85° |
| 2026-05-06 21:44 | 29.89060 | -93.69765 | 28251 ft | 495 kts | 85° |
| 2026-05-06 21:44 | 29.89475 | -93.65801 | 28590 ft | 498 kts | 85° |
| 2026-05-06 21:44 | 29.89891 | -93.61827 | 28928 ft | 501 kts | 85° |
| 2026-05-06 21:44 | 29.90307 | -93.57832 | 29238 ft | 504 kts | 85° |
| 2026-05-06 21:45 | 29.90726 | -93.53806 | 29550 ft | 507 kts | 85° |
| 2026-05-06 21:45 | 29.91151 | -93.49704 | 29851 ft | 510 kts | 85° |
| 2026-05-06 21:45 | 29.91999 | -93.41480 | 30203 ft | 519 kts | 85° |
| 2026-05-06 21:46 | 29.92423 | -93.37349 | 30532 ft | 519 kts | 85° |
| 2026-05-06 21:46 | 29.92845 | -93.33222 | 30877 ft | 518 kts | 85° |
| 2026-05-06 21:46 | 29.93272 | -93.29042 | 31213 ft | 518 kts | 84° |
| 2026-05-06 21:46 | 29.93686 | -93.24972 | 31553 ft | 517 kts | 84° |
| 2026-05-06 21:47 | 29.94108 | -93.20809 | 31896 ft | 516 kts | 84° |
| 2026-05-06 21:47 | 29.94524 | -93.16694 | 32243 ft | 516 kts | 84° |
| 2026-05-06 21:47 | 29.94932 | -93.12645 | 32570 ft | 515 kts | 84° |
| 2026-05-06 21:47 | 29.95344 | -93.08542 | 32904 ft | 515 kts | 84° |
| 2026-05-06 21:48 | 29.95754 | -93.04440 | 33244 ft | 514 kts | 84° |
| 2026-05-06 21:48 | 29.96163 | -93.00352 | 33559 ft | 513 kts | 84° |
| 2026-05-06 21:48 | 29.96569 | -92.96269 | 33873 ft | 513 kts | 84° |
| 2026-05-06 21:48 | 29.97035 | -92.92184 | 34132 ft | 512 kts | 84° |
| 2026-05-06 21:49 | 29.97326 | -92.88099 | 34382 ft | 511 kts | 85° |
| 2026-05-06 21:49 | 29.97662 | -92.84028 | 34639 ft | 511 kts | 85° |
| 2026-05-06 21:49 | 29.97990 | -92.79940 | 34801 ft | 510 kts | 85° |
| 2026-05-06 21:49 | 29.98320 | -92.75874 | 34865 ft | 509 kts | 85° |
| 2026-05-06 21:50 | 29.98977 | -92.67700 | 34913 ft | 514 kts | 85° |
| 2026-05-06 21:50 | 29.99634 | -92.59471 | 34916 ft | 514 kts | 85° |
| 2026-05-06 21:51 | 30.00285 | -92.51256 | 34921 ft | 514 kts | 85° |
| 2026-05-06 21:51 | 30.00929 | -92.43045 | 34914 ft | 514 kts | 85° |
| 2026-05-06 21:52 | 30.01568 | -92.34837 | 34911 ft | 514 kts | 85° |
| 2026-05-06 21:52 | 30.02199 | -92.26678 | 34903 ft | 514 kts | 85° |
| 2026-05-06 21:53 | 30.02828 | -92.18463 | 34904 ft | 513 kts | 85° |
| 2026-05-06 21:53 | 30.03452 | -92.10251 | 34895 ft | 514 kts | 85° |
| 2026-05-06 21:54 | 30.04071 | -92.02037 | 34898 ft | 513 kts | 85° |
| 2026-05-06 21:54 | 30.04684 | -91.93830 | 34917 ft | 514 kts | 85° |
| 2026-05-06 21:55 | 30.05293 | -91.85609 | 34920 ft | 513 kts | 85° |
| 2026-05-06 21:55 | 30.05897 | -91.77395 | 34915 ft | 513 kts | 85° |
| 2026-05-06 21:56 | 30.06495 | -91.69193 | 34925 ft | 513 kts | 85° |
| 2026-05-06 21:56 | 30.07087 | -91.60981 | 34932 ft | 513 kts | 85° |
| 2026-05-06 21:57 | 30.07676 | -91.52751 | 34932 ft | 513 kts | 85° |
| 2026-05-06 21:57 | 30.08255 | -91.44593 | 34940 ft | 513 kts | 85° |
| 2026-05-06 21:58 | 30.08833 | -91.36372 | 34945 ft | 513 kts | 85° |
| 2026-05-06 21:58 | 30.09406 | -91.28147 | 34937 ft | 513 kts | 85° |
| 2026-05-06 21:59 | 30.09974 | -91.19919 | 34927 ft | 513 kts | 85° |
| 2026-05-06 21:59 | 30.10536 | -91.11705 | 34924 ft | 513 kts | 85° |
| 2026-05-06 22:00 | 30.11094 | -91.03485 | 34921 ft | 514 kts | 85° |
| 2026-05-06 22:00 | 30.11850 | -90.95293 | 34919 ft | 513 kts | 79° |
| 2026-05-06 22:01 | 30.13582 | -90.87361 | 34919 ft | 511 kts | 72° |
| 2026-05-06 22:01 | 30.15516 | -90.79455 | 34932 ft | 511 kts | 72° |
| 2026-05-06 22:02 | 30.17465 | -90.71502 | 34930 ft | 511 kts | 72° |
| 2026-05-06 22:02 | 30.19382 | -90.63652 | 34941 ft | 511 kts | 72° |
| 2026-05-06 22:03 | 30.21308 | -90.55736 | 34950 ft | 512 kts | 72° |
| 2026-05-06 22:03 | 30.23229 | -90.47823 | 34934 ft | 511 kts | 72° |
| 2026-05-06 22:04 | 30.25148 | -90.39888 | 34956 ft | 512 kts | 72° |
| 2026-05-06 22:04 | 30.27060 | -90.31962 | 34945 ft | 512 kts | 72° |
| 2026-05-06 22:05 | 30.28971 | -90.24021 | 34957 ft | 512 kts | 72° |
| 2026-05-06 22:05 | 30.30876 | -90.16074 | 34951 ft | 512 kts | 72° |
| 2026-05-06 22:06 | 30.32780 | -90.08114 | 34970 ft | 513 kts | 72° |
| 2026-05-06 22:06 | 30.34666 | -90.00206 | 34980 ft | 513 kts | 72° |
| 2026-05-06 22:07 | 30.36559 | -89.92239 | 34936 ft | 512 kts | 72° |
| 2026-05-06 22:07 | 30.38446 | -89.84283 | 34951 ft | 512 kts | 72° |
| 2026-05-06 22:08 | 30.40326 | -89.76324 | 34940 ft | 512 kts | 72° |
| 2026-05-06 22:08 | 30.42203 | -89.68364 | 34955 ft | 512 kts | 72° |
| 2026-05-06 22:09 | 30.44071 | -89.60409 | 34936 ft | 512 kts | 72° |
| 2026-05-06 22:09 | 30.45939 | -89.52439 | 34968 ft | 512 kts | 72° |
| 2026-05-06 22:10 | 30.47787 | -89.44521 | 34960 ft | 511 kts | 72° |
| 2026-05-06 22:10 | 30.49644 | -89.36550 | 34962 ft | 512 kts | 72° |
| 2026-05-06 22:11 | 30.51494 | -89.28583 | 34962 ft | 511 kts | 72° |
| 2026-05-06 22:11 | 30.53338 | -89.20617 | 34976 ft | 511 kts | 72° |
| 2026-05-06 22:12 | 30.55178 | -89.12644 | 34972 ft | 511 kts | 72° |
| 2026-05-06 22:12 | 30.57000 | -89.04723 | 34977 ft | 511 kts | 72° |
| 2026-05-06 22:13 | 30.58829 | -88.96750 | 34953 ft | 511 kts | 72° |
| 2026-05-06 22:13 | 30.60653 | -88.88773 | 34971 ft | 511 kts | 72° |
| 2026-05-06 22:14 | 30.62469 | -88.80809 | 34960 ft | 510 kts | 72° |
| 2026-05-06 22:14 | 30.64279 | -88.72843 | 34985 ft | 511 kts | 72° |
| 2026-05-06 22:15 | 30.66087 | -88.64867 | 34994 ft | 510 kts | 72° |
| 2026-05-06 22:15 | 30.67387 | -88.59114 | 34989 ft | 510 kts | 72° |
| 2026-05-06 22:16 | 30.68228 | -88.55385 | 34989 ft | 509 kts | 72° |
| 2026-05-06 22:17 | 30.70310 | -88.46134 | 34997 ft | 509 kts | 72° |
| 2026-05-06 22:17 | 30.72049 | -88.38148 | 35002 ft | 510 kts | 74° |
| 2026-05-06 22:18 | 30.72877 | -88.31351 | 34996 ft | 513 kts | 83° |
| 2026-05-06 22:18 | 30.73446 | -88.23089 | 35000 ft | 513 kts | 83° |
| 2026-05-06 22:19 | 30.73980 | -88.14825 | 35007 ft | 513 kts | 84° |
| 2026-05-06 22:19 | 30.74509 | -88.06556 | 35006 ft | 512 kts | 84° |
| 2026-05-06 22:20 | 30.75034 | -87.98284 | 35011 ft | 512 kts | 83° |
| 2026-05-06 22:20 | 30.75555 | -87.90005 | 35005 ft | 512 kts | 84° |
| 2026-05-06 22:21 | 30.76069 | -87.81750 | 35006 ft | 512 kts | 83° |
| 2026-05-06 22:21 | 30.76578 | -87.73482 | 35010 ft | 513 kts | 84° |
| 2026-05-06 22:22 | 30.77082 | -87.65218 | 34995 ft | 512 kts | 83° |
| 2026-05-06 22:22 | 30.77578 | -87.57000 | 35003 ft | 512 kts | 83° |
| 2026-05-06 22:23 | 30.78072 | -87.48727 | 34999 ft | 512 kts | 83° |
| 2026-05-06 22:23 | 30.78561 | -87.40464 | 34996 ft | 512 kts | 83° |
| 2026-05-06 22:24 | 30.79043 | -87.32195 | 35001 ft | 512 kts | 83° |
| 2026-05-06 22:24 | 30.79522 | -87.23911 | 34999 ft | 513 kts | 83° |
| 2026-05-06 22:25 | 30.79992 | -87.15676 | 35007 ft | 513 kts | 83° |
| 2026-05-06 22:25 | 30.80461 | -87.07389 | 35003 ft | 513 kts | 83° |
| 2026-05-06 22:26 | 30.80924 | -86.99100 | 35014 ft | 513 kts | 83° |
| 2026-05-06 22:26 | 30.81383 | -86.90790 | 35003 ft | 513 kts | 83° |
| 2026-05-06 22:27 | 30.81831 | -86.82565 | 35012 ft | 513 kts | 83° |
| 2026-05-06 22:27 | 30.82278 | -86.74278 | 35027 ft | 513 kts | 83° |
| 2026-05-06 22:28 | 30.83011 | -86.66035 | 35027 ft | 509 kts | 74° |
| 2026-05-06 22:28 | 30.84472 | -86.57982 | 35044 ft | 508 kts | 73° |
| 2026-05-06 22:29 | 30.85966 | -86.49980 | 35035 ft | 508 kts | 73° |
| 2026-05-06 22:29 | 30.87462 | -86.41947 | 35043 ft | 508 kts | 73° |
| 2026-05-06 22:30 | 30.88950 | -86.33916 | 35021 ft | 507 kts | 73° |
| 2026-05-06 22:30 | 30.90435 | -86.25874 | 35026 ft | 507 kts | 72° |
| 2026-05-06 22:31 | 30.91910 | -86.17849 | 35014 ft | 507 kts | 72° |
| 2026-05-06 22:31 | 30.93372 | -86.09874 | 35001 ft | 506 kts | 72° |
| 2026-05-06 22:32 | 30.94836 | -86.01849 | 34987 ft | 505 kts | 72° |
| 2026-05-06 22:32 | 30.96291 | -85.93852 | 34983 ft | 505 kts | 72° |
| 2026-05-06 22:33 | 30.97742 | -85.85845 | 34963 ft | 504 kts | 72° |
| 2026-05-06 22:33 | 30.99184 | -85.77854 | 34961 ft | 504 kts | 72° |
| 2026-05-06 22:34 | 31.00619 | -85.69872 | 34949 ft | 503 kts | 72° |
| 2026-05-06 22:34 | 31.02049 | -85.61892 | 34960 ft | 503 kts | 72° |
| 2026-05-06 22:35 | 31.03472 | -85.53918 | 34968 ft | 502 kts | 72° |
| 2026-05-06 22:35 | 31.04875 | -85.46032 | 34993 ft | 502 kts | 72° |
| 2026-05-06 22:36 | 31.06287 | -85.38056 | 35013 ft | 501 kts | 72° |
| 2026-05-06 22:36 | 31.07693 | -85.30094 | 35013 ft | 501 kts | 72° |
| 2026-05-06 22:37 | 31.09095 | -85.22120 | 35012 ft | 501 kts | 72° |
| 2026-05-06 22:37 | 31.10490 | -85.14154 | 35020 ft | 500 kts | 72° |
| 2026-05-06 22:38 | 31.11877 | -85.06203 | 35008 ft | 499 kts | 72° |
| 2026-05-06 22:38 | 31.13251 | -84.98303 | 35017 ft | 499 kts | 72° |
| 2026-05-06 22:39 | 31.14626 | -84.90366 | 35010 ft | 499 kts | 72° |
| 2026-05-06 22:39 | 31.15995 | -84.82431 | 35013 ft | 499 kts | 72° |
| 2026-05-06 22:40 | 31.17358 | -84.74498 | 35017 ft | 498 kts | 72° |
| 2026-05-06 22:40 | 31.18717 | -84.66556 | 35015 ft | 498 kts | 72° |
| 2026-05-06 22:41 | 31.20747 | -84.54643 | 35020 ft | 497 kts | 72° |
| 2026-05-06 22:42 | 31.22082 | -84.46771 | 35020 ft | 497 kts | 72° |
| 2026-05-06 22:42 | 31.23421 | -84.38841 | 35007 ft | 497 kts | 72° |
| 2026-05-06 22:43 | 31.24754 | -84.30917 | 35015 ft | 497 kts | 72° |
| 2026-05-06 22:43 | 31.26082 | -84.22989 | 35006 ft | 496 kts | 72° |
| 2026-05-06 22:44 | 31.27405 | -84.15064 | 35019 ft | 496 kts | 72° |
| 2026-05-06 22:44 | 31.28723 | -84.07133 | 35012 ft | 496 kts | 72° |
| 2026-05-06 22:45 | 31.30026 | -83.99264 | 35032 ft | 496 kts | 71° |
| 2026-05-06 22:45 | 31.31333 | -83.91338 | 35033 ft | 495 kts | 71° |
| 2026-05-06 22:46 | 31.32633 | -83.83425 | 35045 ft | 495 kts | 71° |
| 2026-05-06 22:46 | 31.33926 | -83.75517 | 35027 ft | 495 kts | 71° |
| 2026-05-06 22:47 | 31.35216 | -83.67603 | 35036 ft | 495 kts | 71° |
| 2026-05-06 22:47 | 31.36498 | -83.59706 | 35026 ft | 494 kts | 71° |
| 2026-05-06 22:48 | 31.37774 | -83.51805 | 35034 ft | 494 kts | 71° |
| 2026-05-06 22:48 | 31.39039 | -83.43949 | 35024 ft | 494 kts | 71° |
| 2026-05-06 22:49 | 31.40306 | -83.36046 | 35033 ft | 494 kts | 71° |
| 2026-05-06 22:49 | 31.41565 | -83.28156 | 35027 ft | 493 kts | 71° |
| 2026-05-06 22:50 | 31.42823 | -83.20250 | 35035 ft | 493 kts | 71° |
| 2026-05-06 22:50 | 31.43450 | -83.16296 | 34928 ft | 494 kts | 71° |
| 2026-05-06 22:50 | 31.44076 | -83.12339 | 34299 ft | 495 kts | 71° |
| 2026-05-06 22:50 | 31.44699 | -83.08386 | 33606 ft | 492 kts | 71° |
| 2026-05-06 22:51 | 31.45321 | -83.04443 | 32900 ft | 489 kts | 71° |
| 2026-05-06 22:51 | 31.45774 | -83.00537 | 32215 ft | 491 kts | 78° |
| 2026-05-06 22:51 | 31.46232 | -82.96567 | 31533 ft | 479 kts | 70° |
| 2026-05-06 22:51 | 31.46978 | -82.92844 | 30895 ft | 474 kts | 68° |
| 2026-05-06 22:52 | 31.47676 | -82.89048 | 30264 ft | 480 kts | 72° |
| 2026-05-06 22:52 | 31.48303 | -82.85199 | 29563 ft | 482 kts | 73° |
| 2026-05-06 22:52 | 31.48908 | -82.81339 | 28835 ft | 480 kts | 73° |
| 2026-05-06 22:52 | 31.49503 | -82.77504 | 28117 ft | 475 kts | 74° |
| 2026-05-06 22:53 | 31.50087 | -82.73709 | 27415 ft | 469 kts | 74° |
| 2026-05-06 22:53 | 31.50656 | -82.69981 | 26728 ft | 463 kts | 75° |
| 2026-05-06 22:53 | 31.51220 | -82.66270 | 26048 ft | 458 kts | 75° |
| 2026-05-06 22:53 | 31.51771 | -82.62627 | 25394 ft | 453 kts | 76° |
| 2026-05-06 22:54 | 31.52319 | -82.58992 | 24751 ft | 450 kts | 76° |
| 2026-05-06 22:54 | 31.52859 | -82.55398 | 24122 ft | 446 kts | 76° |
| 2026-05-06 22:54 | 31.53396 | -82.51816 | 23489 ft | 443 kts | 77° |
| 2026-05-06 22:54 | 31.53921 | -82.48298 | 23208 ft | 434 kts | 77° |
| 2026-05-06 22:55 | 31.54442 | -82.44791 | 23109 ft | 439 kts | 76° |
| 2026-05-06 22:55 | 31.54962 | -82.41295 | 23064 ft | 440 kts | 76° |
| 2026-05-06 22:55 | 31.55708 | -82.37841 | 22978 ft | 433 kts | 65° |
| 2026-05-06 22:55 | 31.56852 | -82.34594 | 22975 ft | 431 kts | 62° |
| 2026-05-06 22:56 | 31.58060 | -82.31364 | 22995 ft | 432 kts | 62° |
| 2026-05-06 22:56 | 31.59261 | -82.28132 | 23017 ft | 431 kts | 62° |
| 2026-05-06 22:56 | 31.60449 | -82.24901 | 23029 ft | 431 kts | 62° |
| 2026-05-06 22:56 | 31.61512 | -82.21607 | 23007 ft | 434 kts | 68° |
| 2026-05-06 22:57 | 31.62451 | -82.18247 | 23026 ft | 433 kts | 68° |
| 2026-05-06 22:57 | 31.63365 | -82.14873 | 23026 ft | 433 kts | 68° |
| 2026-05-06 22:57 | 31.64270 | -82.11502 | 23024 ft | 433 kts | 68° |
| 2026-05-06 22:57 | 31.65162 | -82.08167 | 23034 ft | 433 kts | 69° |
| 2026-05-06 22:58 | 31.66075 | -82.04755 | 23038 ft | 433 kts | 69° |
| 2026-05-06 22:58 | 31.66974 | -82.01391 | 23037 ft | 432 kts | 69° |
| 2026-05-06 22:58 | 31.67873 | -81.98027 | 23031 ft | 432 kts | 69° |
| 2026-05-06 22:58 | 31.68759 | -81.94709 | 23042 ft | 432 kts | 69° |
| 2026-05-06 22:59 | 31.69655 | -81.91346 | 22994 ft | 432 kts | 69° |
| 2026-05-06 22:59 | 31.70553 | -81.87973 | 22371 ft | 431 kts | 69° |
| 2026-05-06 22:59 | 31.71442 | -81.84629 | 21685 ft | 426 kts | 69° |
| 2026-05-06 22:59 | 31.72318 | -81.81336 | 21017 ft | 420 kts | 69° |
| 2026-05-06 23:00 | 31.73183 | -81.78080 | 20361 ft | 415 kts | 69° |
| 2026-05-06 23:00 | 31.74039 | -81.74851 | 19718 ft | 410 kts | 69° |
| 2026-05-06 23:00 | 31.74879 | -81.71678 | 19228 ft | 401 kts | 69° |
| 2026-05-06 23:00 | 31.75693 | -81.68597 | 18835 ft | 390 kts | 69° |
| 2026-05-06 23:01 | 31.76495 | -81.65569 | 18457 ft | 388 kts | 69° |
| 2026-05-06 23:01 | 31.77297 | -81.62536 | 18050 ft | 389 kts | 70° |
| 2026-05-06 23:01 | 31.78093 | -81.59511 | 17618 ft | 386 kts | 70° |
| 2026-05-06 23:01 | 31.78886 | -81.56501 | 17101 ft | 384 kts | 70° |
| 2026-05-06 23:02 | 31.79672 | -81.53516 | 16548 ft | 380 kts | 70° |
| 2026-05-06 23:02 | 31.80436 | -81.50606 | 16014 ft | 376 kts | 70° |
| 2026-05-06 23:02 | 31.81206 | -81.47678 | 15489 ft | 373 kts | 70° |
| 2026-05-06 23:02 | 31.81964 | -81.44786 | 14966 ft | 370 kts | 70° |
| 2026-05-06 23:03 | 31.82715 | -81.41943 | 14469 ft | 367 kts | 70° |
| 2026-05-06 23:03 | 31.83461 | -81.39080 | 13978 ft | 365 kts | 70° |
| 2026-05-06 23:03 | 31.84206 | -81.36227 | 13383 ft | 363 kts | 70° |
| 2026-05-06 23:03 | 31.84986 | -81.33418 | 12744 ft | 358 kts | 63° |
| 2026-05-06 23:04 | 31.86374 | -81.31068 | 12099 ft | 347 kts | 39° |
| 2026-05-06 23:04 | 31.88353 | -81.29540 | 11492 ft | 337 kts | 22° |
| 2026-05-06 23:04 | 31.90467 | -81.28399 | 10904 ft | 332 kts | 18° |
| 2026-05-06 23:04 | 31.91897 | -81.27779 | 10536 ft | 329 kts | 15° |
| 2026-05-06 23:05 | 31.94105 | -81.27260 | 9977 ft | 320 kts | 359° |
| 2026-05-06 23:05 | 31.96323 | -81.27263 | 9365 ft | 317 kts | 354° |
| 2026-05-06 23:05 | 31.99210 | -81.27437 | 8792 ft | 306 kts | 353° |
| 2026-05-06 23:05 | 32.01260 | -81.27599 | 8628 ft | 293 kts | 352° |
| 2026-05-06 23:06 | 32.02615 | -81.27712 | 8510 ft | 285 kts | 352° |
| 2026-05-06 23:06 | 32.04576 | -81.27888 | 8208 ft | 280 kts | 350° |
| 2026-05-06 23:06 | 32.06482 | -81.28271 | 7769 ft | 278 kts | 345° |
| 2026-05-06 23:06 | 32.08367 | -81.28775 | 7368 ft | 277 kts | 343° |
| 2026-05-06 23:07 | 32.10236 | -81.29317 | 6976 ft | 276 kts | 342° |
| 2026-05-06 23:07 | 32.12097 | -81.29874 | 6605 ft | 275 kts | 342° |
| 2026-05-06 23:07 | 32.13955 | -81.30438 | 6218 ft | 275 kts | 342° |
| 2026-05-06 23:07 | 32.15764 | -81.30985 | 6096 ft | 261 kts | 342° |
| 2026-05-06 23:08 | 32.17475 | -81.31493 | 5924 ft | 244 kts | 342° |
| 2026-05-06 23:08 | 32.19056 | -81.31960 | 5629 ft | 231 kts | 342° |
| 2026-05-06 23:08 | 32.20462 | -81.32694 | 5272 ft | 216 kts | 314° |
| 2026-05-06 23:08 | 32.21172 | -81.34165 | 4855 ft | 206 kts | 277° |
| 2026-05-06 23:09 | 32.20896 | -81.35779 | 4356 ft | 204 kts | 237° |
| 2026-05-06 23:09 | 32.19785 | -81.36733 | 4080 ft | 199 kts | 196° |
| 2026-05-06 23:09 | 32.18448 | -81.36562 | 3840 ft | 197 kts | 155° |
| 2026-05-06 23:09 | 32.17339 | -81.35663 | 3611 ft | 191 kts | 142° |
| 2026-05-06 23:10 | 32.16629 | -81.34378 | 3336 ft | 193 kts | 103° |
| 2026-05-06 23:10 | 32.16850 | -81.32836 | 3023 ft | 199 kts | 61° |
| 2026-05-06 23:10 | 32.17906 | -81.31810 | 2814 ft | 201 kts | 19° |
| 2026-05-06 23:10 | 32.19282 | -81.31827 | 2500 ft | 203 kts | 337° |
| 2026-05-06 23:11 | 32.20323 | -81.32881 | 2191 ft | 198 kts | 293° |
| 2026-05-06 23:11 | 32.20477 | -81.34453 | 2296 ft | 196 kts | 249° |
| 2026-05-06 23:11 | 32.19767 | -81.35588 | 2511 ft | 163 kts | 204° |
| 2026-05-06 23:11 | 32.18738 | -81.35647 | 2291 ft | 147 kts | 151° |
| 2026-05-06 23:12 | 32.18044 | -81.34824 | 2155 ft | 139 kts | 130° |
| 2026-05-06 23:12 | 32.17339 | -81.34104 | 2036 ft | 130 kts | 148° |
| 2026-05-06 23:12 | 32.16514 | -81.33680 | 1983 ft | 125 kts | 158° |
| 2026-05-06 23:12 | 32.15715 | -81.33357 | 2008 ft | 128 kts | 159° |
| 2026-05-06 23:13 | 32.14916 | -81.32953 | 2032 ft | 126 kts | 135° |
| 2026-05-06 23:13 | 32.14592 | -81.31977 | 2046 ft | 132 kts | 109° |
| 2026-05-06 23:13 | 32.14159 | -81.31045 | 1993 ft | 129 kts | 130° |
| 2026-05-06 23:13 | 32.13682 | -81.30162 | 1878 ft | 121 kts | 120° |
| 2026-05-06 23:14 | 32.13283 | -81.29217 | 1543 ft | 129 kts | 118° |
| 2026-05-06 23:14 | 32.12966 | -81.28254 | 1401 ft | 124 kts | 110° |
| 2026-05-06 23:14 | 32.12958 | -81.27195 | 1322 ft | 132 kts | 98° |
| 2026-05-06 23:14 | 32.12917 | -81.26110 | 1014 ft | 131 kts | 98° |
| 2026-05-06 23:15 | 32.12910 | -81.25091 | 745 ft | 129 kts | 95° |
| 2026-05-06 23:15 | 32.12903 | -81.24033 | 545 ft | 129 kts | 97° |
| 2026-05-06 23:15 | 32.12893 | -81.22937 | 341 ft | 133 kts | 99° |
| 2026-05-06 23:15 | 32.12884 | -81.21903 | 94 ft | 121 kts | 97° |
| 2026-05-06 23:16 | 32.12868 | -81.21087 | 40 ft | 57 kts | 94° |
| 2026-05-06 23:16 | 32.12863 | -81.20692 | 41 ft | 32 kts | 89° |
| 2026-05-06 23:16 | 32.12862 | -81.20454 | 39 ft | 22 kts | 89° |
| 2026-05-06 23:16 | 32.12938 | -81.20335 | 45 ft | 17 kts | 11° |
| 2026-05-06 23:17 | 32.13047 | -81.20330 | 50 ft | 16 kts | 0° |
| 2026-05-06 23:17 | 32.13161 | -81.20330 | 51 ft | 18 kts | 360° |
| 2026-05-06 23:17 | 32.13293 | -81.20329 | 51 ft | 20 kts | 1° |
| 2026-05-06 23:17 | 32.13394 | -81.20331 | 51 ft | 6 kts | 359° |
| 2026-05-06 23:18 | 32.13434 | -81.20351 | 51 ft | 7 kts | 310° |
| 2026-05-06 23:18 | 32.13446 | -81.20408 | 51 ft | 9 kts | 272° |
| 2026-05-06 23:18 | 32.13447 | -81.20493 | 51 ft | 12 kts | 270° |
| 2026-05-06 23:18 | 32.13448 | -81.20610 | 51 ft | 16 kts | 271° |
| 2026-05-06 23:19 | 32.13449 | -81.20754 | 51 ft | 19 kts | 271° |
| 2026-05-06 23:19 | 32.13449 | -81.20842 | 51 ft | 8 kts | 270° |
| 2026-05-06 23:19 | 32.13455 | -81.20869 | 50 ft | 3 kts | 287° |
| 2026-05-06 23:19 | 32.13465 | -81.20889 | 50 ft | 2 kts | 319° |
| 2026-05-06 23:20 | 32.13473 | -81.20894 | 51 ft | 1 kts | 349° |
| 2026-05-06 23:20 | 32.13479 | -81.20893 | 51 ft | 1 kts | 9° |
| 2026-05-06 23:20 | 32.13498 | -81.20889 | 51 ft | 4 kts | 8° |
| 2026-05-06 23:20 | 32.13512 | -81.20887 | 51 ft | 2 kts | 7° |
| 2026-05-06 23:21 | 32.13518 | -81.20887 | 51 ft | 1 kts | 7° |